sensor_id;sensor_type;location;lat;lon;timestamp;temperature;humidity
14411;DHT22;7290;50.854;4.354;2023-09-07T00:01:21;23.80;99.90
14411;DHT22;7290;50.854;4.354;2023-09-07T00:03:48;23.80;99.90
14411;DHT22;7290;50.854;4.354;2023-09-07T00:06:14;23.80;99.90
14411;DHT22;7290;50.854;4.354;2023-09-07T00:08:40;23.70;99.90
14411;DHT22;7290;50.854;4.354;2023-09-07T00:11:06;23.80;99.90
14411;DHT22;7290;50.854;4.354;2023-09-07T00:13:33;23.70;99.90
14411;DHT22;7290;50.854;4.354;2023-09-07T00:15:59;23.60;99.90
14411;DHT22;7290;50.854;4.354;2023-09-07T00:18:26;23.60;99.90
14411;DHT22;7290;50.854;4.354;2023-09-07T00:20:53;23.60;99.90
14411;DHT22;7290;50.854;4.354;2023-09-07T00:23:19;23.60;99.90
14411;DHT22;7290;50.854;4.354;2023-09-07T00:25:45;23.60;99.90
14411;DHT22;7290;50.854;4.354;2023-09-07T00:28:11;23.50;99.90
14411;DHT22;7290;50.854;4.354;2023-09-07T00:30:37;23.50;99.90
14411;DHT22;7290;50.854;4.354;2023-09-07T00:33:04;23.50;99.90
14411;DHT22;7290;50.854;4.354;2023-09-07T00:35:31;23.50;99.90
14411;DHT22;7290;50.854;4.354;2023-09-07T00:37:57;23.40;99.90
14411;DHT22;7290;50.854;4.354;2023-09-07T00:40:23;23.30;99.90
14411;DHT22;7290;50.854;4.354;2023-09-07T00:42:51;23.30;99.90
14411;DHT22;7290;50.854;4.354;2023-09-07T00:45:17;23.40;99.90
14411;DHT22;7290;50.854;4.354;2023-09-07T00:47:44;23.40;99.90
14411;DHT22;7290;50.854;4.354;2023-09-07T00:50:10;23.40;99.90
14411;DHT22;7290;50.854;4.354;2023-09-07T00:52:41;23.60;99.90
14411;DHT22;7290;50.854;4.354;2023-09-07T00:55:08;23.70;99.90
14411;DHT22;7290;50.854;4.354;2023-09-07T00:57:35;23.60;99.90
14411;DHT22;7290;50.854;4.354;2023-09-07T01:00:02;23.70;99.90
14411;DHT22;7290;50.854;4.354;2023-09-07T01:02:29;23.80;99.90
14411;DHT22;7290;50.854;4.354;2023-09-07T01:04:56;23.90;99.90
14411;DHT22;7290;50.854;4.354;2023-09-07T01:07:25;23.90;99.90
14411;DHT22;7290;50.854;4.354;2023-09-07T01:09:54;23.90;99.90
14411;DHT22;7290;50.854;4.354;2023-09-07T01:12:22;23.80;99.90
14411;DHT22;7290;50.854;4.354;2023-09-07T01:14:50;23.60;99.90
14411;DHT22;7290;50.854;4.354;2023-09-07T01:17:16;23.70;99.90
14411;DHT22;7290;50.854;4.354;2023-09-07T01:19:44;23.80;99.90
14411;DHT22;7290;50.854;4.354;2023-09-07T01:22:12;23.80;99.90
14411;DHT22;7290;50.854;4.354;2023-09-07T01:24:40;23.80;99.90
14411;DHT22;7290;50.854;4.354;2023-09-07T01:27:07;23.70;99.90
14411;DHT22;7290;50.854;4.354;2023-09-07T01:29:33;23.60;99.90
14411;DHT22;7290;50.854;4.354;2023-09-07T01:31:59;23.40;99.90
14411;DHT22;7290;50.854;4.354;2023-09-07T01:34:25;23.40;99.90
14411;DHT22;7290;50.854;4.354;2023-09-07T01:36:51;23.10;99.90
14411;DHT22;7290;50.854;4.354;2023-09-07T01:39:18;22.90;99.90
14411;DHT22;7290;50.854;4.354;2023-09-07T01:41:44;22.90;99.90
14411;DHT22;7290;50.854;4.354;2023-09-07T01:44:10;23.00;99.90
14411;DHT22;7290;50.854;4.354;2023-09-07T01:46:36;22.90;99.90
14411;DHT22;7290;50.854;4.354;2023-09-07T01:49:02;23.00;99.90
14411;DHT22;7290;50.854;4.354;2023-09-07T01:51:28;23.00;99.90
14411;DHT22;7290;50.854;4.354;2023-09-07T01:53:54;22.90;99.90
14411;DHT22;7290;50.854;4.354;2023-09-07T01:56:21;22.90;99.90
14411;DHT22;7290;50.854;4.354;2023-09-07T01:58:48;22.90;99.90
14411;DHT22;7290;50.854;4.354;2023-09-07T02:01:21;22.80;99.90
14411;DHT22;7290;50.854;4.354;2023-09-07T02:03:47;22.70;99.90
14411;DHT22;7290;50.854;4.354;2023-09-07T02:06:13;22.60;99.90
14411;DHT22;7290;50.854;4.354;2023-09-07T02:08:40;22.60;99.90
14411;DHT22;7290;50.854;4.354;2023-09-07T02:11:06;22.40;99.90
14411;DHT22;7290;50.854;4.354;2023-09-07T02:13:33;22.40;99.90
14411;DHT22;7290;50.854;4.354;2023-09-07T02:16:03;22.50;99.90
14411;DHT22;7290;50.854;4.354;2023-09-07T02:18:29;22.50;99.90
14411;DHT22;7290;50.854;4.354;2023-09-07T02:21:01;22.50;99.90
14411;DHT22;7290;50.854;4.354;2023-09-07T02:23:27;22.50;99.90
14411;DHT22;7290;50.854;4.354;2023-09-07T02:25:53;22.50;99.90
14411;DHT22;7290;50.854;4.354;2023-09-07T02:28:19;22.40;99.90
14411;DHT22;7290;50.854;4.354;2023-09-07T02:30:46;22.40;99.90
14411;DHT22;7290;50.854;4.354;2023-09-07T02:33:12;22.40;99.90
14411;DHT22;7290;50.854;4.354;2023-09-07T02:35:38;22.30;99.90
14411;DHT22;7290;50.854;4.354;2023-09-07T02:38:04;22.30;99.90
14411;DHT22;7290;50.854;4.354;2023-09-07T02:40:30;22.20;99.90
14411;DHT22;7290;50.854;4.354;2023-09-07T02:42:56;22.20;99.90
14411;DHT22;7290;50.854;4.354;2023-09-07T02:45:22;22.10;99.90
14411;DHT22;7290;50.854;4.354;2023-09-07T02:47:49;22.10;99.90
14411;DHT22;7290;50.854;4.354;2023-09-07T02:50:16;22.10;99.90
14411;DHT22;7290;50.854;4.354;2023-09-07T02:52:43;22.10;99.90
14411;DHT22;7290;50.854;4.354;2023-09-07T02:55:09;22.10;99.90
14411;DHT22;7290;50.854;4.354;2023-09-07T02:57:35;22.10;99.90
14411;DHT22;7290;50.854;4.354;2023-09-07T03:00:02;22.00;99.90
14411;DHT22;7290;50.854;4.354;2023-09-07T03:02:36;22.00;99.90
14411;DHT22;7290;50.854;4.354;2023-09-07T03:05:04;22.00;99.90
14411;DHT22;7290;50.854;4.354;2023-09-07T03:07:33;22.00;99.90
14411;DHT22;7290;50.854;4.354;2023-09-07T03:09:59;22.00;99.90
14411;DHT22;7290;50.854;4.354;2023-09-07T03:12:27;21.90;99.90
14411;DHT22;7290;50.854;4.354;2023-09-07T03:14:53;22.00;99.90
14411;DHT22;7290;50.854;4.354;2023-09-07T03:17:19;22.10;99.90
14411;DHT22;7290;50.854;4.354;2023-09-07T03:19:46;22.10;99.90
14411;DHT22;7290;50.854;4.354;2023-09-07T03:22:13;22.00;99.90
14411;DHT22;7290;50.854;4.354;2023-09-07T03:24:39;22.00;99.90
14411;DHT22;7290;50.854;4.354;2023-09-07T03:27:05;21.90;99.90
14411;DHT22;7290;50.854;4.354;2023-09-07T03:29:31;21.80;99.90
14411;DHT22;7290;50.854;4.354;2023-09-07T03:31:59;21.80;99.90
14411;DHT22;7290;50.854;4.354;2023-09-07T03:34:25;21.80;99.90
14411;DHT22;7290;50.854;4.354;2023-09-07T03:36:51;21.80;99.90
14411;DHT22;7290;50.854;4.354;2023-09-07T03:39:18;21.90;99.90
14411;DHT22;7290;50.854;4.354;2023-09-07T03:41:44;21.90;99.90
14411;DHT22;7290;50.854;4.354;2023-09-07T03:44:10;21.90;99.90
14411;DHT22;7290;50.854;4.354;2023-09-07T03:46:36;21.90;99.90
14411;DHT22;7290;50.854;4.354;2023-09-07T03:49:03;21.80;99.90
14411;DHT22;7290;50.854;4.354;2023-09-07T03:51:29;21.90;99.90
14411;DHT22;7290;50.854;4.354;2023-09-07T03:53:55;21.80;99.90
14411;DHT22;7290;50.854;4.354;2023-09-07T03:56:22;21.80;99.90
14411;DHT22;7290;50.854;4.354;2023-09-07T03:58:48;21.80;99.90
14411;DHT22;7290;50.854;4.354;2023-09-07T04:01:14;21.80;99.90
14411;DHT22;7290;50.854;4.354;2023-09-07T04:03:40;21.70;99.90
14411;DHT22;7290;50.854;4.354;2023-09-07T04:06:07;21.60;99.90
14411;DHT22;7290;50.854;4.354;2023-09-07T04:08:33;21.60;99.90
14411;DHT22;7290;50.854;4.354;2023-09-07T04:11:03;21.50;99.90
14411;DHT22;7290;50.854;4.354;2023-09-07T04:13:30;21.50;99.90
14411;DHT22;7290;50.854;4.354;2023-09-07T04:15:56;21.60;99.90
14411;DHT22;7290;50.854;4.354;2023-09-07T04:18:22;21.70;99.90
14411;DHT22;7290;50.854;4.354;2023-09-07T04:20:48;21.60;99.90
14411;DHT22;7290;50.854;4.354;2023-09-07T04:23:14;21.60;99.90
14411;DHT22;7290;50.854;4.354;2023-09-07T04:25:40;21.60;99.90
14411;DHT22;7290;50.854;4.354;2023-09-07T04:28:07;21.60;99.90
14411;DHT22;7290;50.854;4.354;2023-09-07T04:30:37;21.50;99.90
14411;DHT22;7290;50.854;4.354;2023-09-07T04:33:03;21.60;99.90
14411;DHT22;7290;50.854;4.354;2023-09-07T04:35:30;21.60;99.90
14411;DHT22;7290;50.854;4.354;2023-09-07T04:37:56;21.50;99.90
14411;DHT22;7290;50.854;4.354;2023-09-07T04:40:23;21.60;99.90
14411;DHT22;7290;50.854;4.354;2023-09-07T04:42:50;21.60;99.90
14411;DHT22;7290;50.854;4.354;2023-09-07T04:45:16;21.50;99.90
14411;DHT22;7290;50.854;4.354;2023-09-07T04:47:43;21.50;99.90
14411;DHT22;7290;50.854;4.354;2023-09-07T04:50:10;21.50;99.90
14411;DHT22;7290;50.854;4.354;2023-09-07T04:52:36;21.50;99.90
14411;DHT22;7290;50.854;4.354;2023-09-07T04:55:02;21.50;99.90
14411;DHT22;7290;50.854;4.354;2023-09-07T04:57:30;21.40;99.90
14411;DHT22;7290;50.854;4.354;2023-09-07T04:59:57;21.40;99.90
14411;DHT22;7290;50.854;4.354;2023-09-07T05:02:23;21.50;99.90
14411;DHT22;7290;50.854;4.354;2023-09-07T05:04:51;21.40;99.90
14411;DHT22;7290;50.854;4.354;2023-09-07T05:07:17;21.50;99.90
14411;DHT22;7290;50.854;4.354;2023-09-07T05:09:43;21.40;99.90
14411;DHT22;7290;50.854;4.354;2023-09-07T05:12:09;21.50;99.90
14411;DHT22;7290;50.854;4.354;2023-09-07T05:14:36;21.50;99.90
14411;DHT22;7290;50.854;4.354;2023-09-07T05:17:02;21.50;99.90
14411;DHT22;7290;50.854;4.354;2023-09-07T05:19:28;21.50;99.90
14411;DHT22;7290;50.854;4.354;2023-09-07T05:21:55;21.50;99.90
14411;DHT22;7290;50.854;4.354;2023-09-07T05:24:21;21.50;99.90
14411;DHT22;7290;50.854;4.354;2023-09-07T05:26:48;21.60;99.90
14411;DHT22;7290;50.854;4.354;2023-09-07T05:29:14;21.60;99.90
14411;DHT22;7290;50.854;4.354;2023-09-07T05:31:40;21.60;99.90
14411;DHT22;7290;50.854;4.354;2023-09-07T05:34:06;21.70;99.90
14411;DHT22;7290;50.854;4.354;2023-09-07T05:36:32;21.80;99.90
14411;DHT22;7290;50.854;4.354;2023-09-07T05:38:59;21.80;99.90
14411;DHT22;7290;50.854;4.354;2023-09-07T05:41:27;21.80;99.90
14411;DHT22;7290;50.854;4.354;2023-09-07T05:43:53;21.80;99.90
14411;DHT22;7290;50.854;4.354;2023-09-07T05:46:19;21.80;99.90
14411;DHT22;7290;50.854;4.354;2023-09-07T05:48:45;21.80;99.90
14411;DHT22;7290;50.854;4.354;2023-09-07T05:51:11;21.70;99.90
14411;DHT22;7290;50.854;4.354;2023-09-07T05:53:39;21.80;99.90
14411;DHT22;7290;50.854;4.354;2023-09-07T05:56:05;21.90;99.90
14411;DHT22;7290;50.854;4.354;2023-09-07T05:58:31;21.90;99.90
14411;DHT22;7290;50.854;4.354;2023-09-07T06:00:59;22.00;99.90
14411;DHT22;7290;50.854;4.354;2023-09-07T06:03:25;22.00;99.90
14411;DHT22;7290;50.854;4.354;2023-09-07T06:05:51;22.00;99.90
14411;DHT22;7290;50.854;4.354;2023-09-07T06:08:18;22.00;99.90
14411;DHT22;7290;50.854;4.354;2023-09-07T06:10:44;22.00;99.90
14411;DHT22;7290;50.854;4.354;2023-09-07T06:13:11;22.00;99.90
14411;DHT22;7290;50.854;4.354;2023-09-07T06:15:37;22.00;99.90
14411;DHT22;7290;50.854;4.354;2023-09-07T06:18:03;22.10;99.90
14411;DHT22;7290;50.854;4.354;2023-09-07T06:20:29;22.00;99.90
14411;DHT22;7290;50.854;4.354;2023-09-07T06:22:55;22.10;99.90
14411;DHT22;7290;50.854;4.354;2023-09-07T06:25:21;22.10;99.90
14411;DHT22;7290;50.854;4.354;2023-09-07T06:27:48;22.20;99.90
14411;DHT22;7290;50.854;4.354;2023-09-07T06:30:15;22.20;99.90
14411;DHT22;7290;50.854;4.354;2023-09-07T06:32:41;22.30;99.90
14411;DHT22;7290;50.854;4.354;2023-09-07T06:35:08;22.40;99.90
14411;DHT22;7290;50.854;4.354;2023-09-07T06:37:35;22.40;99.90
14411;DHT22;7290;50.854;4.354;2023-09-07T06:40:02;22.50;99.90
14411;DHT22;7290;50.854;4.354;2023-09-07T06:42:29;22.60;99.90
14411;DHT22;7290;50.854;4.354;2023-09-07T06:44:57;22.60;99.90
14411;DHT22;7290;50.854;4.354;2023-09-07T06:47:24;22.70;99.90
14411;DHT22;7290;50.854;4.354;2023-09-07T06:49:51;22.80;99.90
14411;DHT22;7290;50.854;4.354;2023-09-07T06:52:17;23.00;99.90
14411;DHT22;7290;50.854;4.354;2023-09-07T06:54:43;23.70;99.90
14411;DHT22;7290;50.854;4.354;2023-09-07T06:57:09;25.00;99.90
14411;DHT22;7290;50.854;4.354;2023-09-07T06:59:35;26.30;99.90
14411;DHT22;7290;50.854;4.354;2023-09-07T07:02:02;27.40;99.90
14411;DHT22;7290;50.854;4.354;2023-09-07T07:04:31;27.60;99.90
14411;DHT22;7290;50.854;4.354;2023-09-07T07:06:57;27.00;99.90
14411;DHT22;7290;50.854;4.354;2023-09-07T07:09:23;26.20;99.90
14411;DHT22;7290;50.854;4.354;2023-09-07T07:11:50;25.60;99.90
14411;DHT22;7290;50.854;4.354;2023-09-07T07:14:16;25.10;99.90
14411;DHT22;7290;50.854;4.354;2023-09-07T07:16:42;24.80;99.90
14411;DHT22;7290;50.854;4.354;2023-09-07T07:19:09;24.60;99.90
14411;DHT22;7290;50.854;4.354;2023-09-07T07:21:36;24.40;99.90
14411;DHT22;7290;50.854;4.354;2023-09-07T07:24:02;24.30;99.90
14411;DHT22;7290;50.854;4.354;2023-09-07T07:26:30;24.30;99.90
14411;DHT22;7290;50.854;4.354;2023-09-07T07:28:57;24.20;99.90
14411;DHT22;7290;50.854;4.354;2023-09-07T07:31:24;24.10;99.90
14411;DHT22;7290;50.854;4.354;2023-09-07T07:33:50;24.30;99.90
14411;DHT22;7290;50.854;4.354;2023-09-07T07:36:17;24.20;99.90
14411;DHT22;7290;50.854;4.354;2023-09-07T07:38:44;24.40;99.90
14411;DHT22;7290;50.854;4.354;2023-09-07T07:41:10;24.50;99.90
14411;DHT22;7290;50.854;4.354;2023-09-07T07:43:36;24.30;99.90
14411;DHT22;7290;50.854;4.354;2023-09-07T07:46:03;24.30;99.90
14411;DHT22;7290;50.854;4.354;2023-09-07T07:48:29;24.30;99.90
14411;DHT22;7290;50.854;4.354;2023-09-07T07:50:55;24.40;99.90
14411;DHT22;7290;50.854;4.354;2023-09-07T07:53:22;24.50;99.90
14411;DHT22;7290;50.854;4.354;2023-09-07T07:55:48;24.60;99.90
14411;DHT22;7290;50.854;4.354;2023-09-07T07:58:15;24.70;99.90
14411;DHT22;7290;50.854;4.354;2023-09-07T08:00:44;24.60;99.90
14411;DHT22;7290;50.854;4.354;2023-09-07T08:03:13;24.80;99.90
14411;DHT22;7290;50.854;4.354;2023-09-07T08:05:39;24.70;99.90
14411;DHT22;7290;50.854;4.354;2023-09-07T08:08:05;24.60;99.90
14411;DHT22;7290;50.854;4.354;2023-09-07T08:10:33;24.50;99.90
14411;DHT22;7290;50.854;4.354;2023-09-07T08:13:01;24.50;99.90
14411;DHT22;7290;50.854;4.354;2023-09-07T08:15:29;24.60;99.90
14411;DHT22;7290;50.854;4.354;2023-09-07T08:17:56;24.80;99.90
14411;DHT22;7290;50.854;4.354;2023-09-07T08:20:24;25.10;99.90
14411;DHT22;7290;50.854;4.354;2023-09-07T08:22:51;25.20;99.90
14411;DHT22;7290;50.854;4.354;2023-09-07T08:25:18;25.30;99.90
14411;DHT22;7290;50.854;4.354;2023-09-07T08:27:46;25.40;99.90
14411;DHT22;7290;50.854;4.354;2023-09-07T08:30:15;25.50;99.90
14411;DHT22;7290;50.854;4.354;2023-09-07T08:32:42;25.40;99.90
14411;DHT22;7290;50.854;4.354;2023-09-07T08:35:10;25.40;99.90
14411;DHT22;7290;50.854;4.354;2023-09-07T08:37:38;25.50;99.90
14411;DHT22;7290;50.854;4.354;2023-09-07T08:40:05;26.00;99.90
14411;DHT22;7290;50.854;4.354;2023-09-07T08:42:33;27.20;99.90
14411;DHT22;7290;50.854;4.354;2023-09-07T08:45:01;29.10;99.90
14411;DHT22;7290;50.854;4.354;2023-09-07T08:47:33;31.00;98.30
14411;DHT22;7290;50.854;4.354;2023-09-07T08:50:01;32.50;95.50
14411;DHT22;7290;50.854;4.354;2023-09-07T08:52:27;32.70;94.70
14411;DHT22;7290;50.854;4.354;2023-09-07T08:54:54;33.70;93.60
14411;DHT22;7290;50.854;4.354;2023-09-07T08:57:25;34.60;92.30
14411;DHT22;7290;50.854;4.354;2023-09-07T08:59:53;35.30;90.80
14411;DHT22;7290;50.854;4.354;2023-09-07T09:02:19;35.60;89.90
14411;DHT22;7290;50.854;4.354;2023-09-07T09:04:46;35.70;89.30
14411;DHT22;7290;50.854;4.354;2023-09-07T09:07:12;35.00;88.80
14411;DHT22;7290;50.854;4.354;2023-09-07T09:09:39;35.10;89.50
14411;DHT22;7290;50.854;4.354;2023-09-07T09:12:08;35.60;88.80
14411;DHT22;7290;50.854;4.354;2023-09-07T09:14:35;35.60;87.40
14411;DHT22;7290;50.854;4.354;2023-09-07T09:17:01;35.80;87.40
14411;DHT22;7290;50.854;4.354;2023-09-07T09:19:31;35.70;86.20
14411;DHT22;7290;50.854;4.354;2023-09-07T09:21:58;35.70;86.20
14411;DHT22;7290;50.854;4.354;2023-09-07T09:24:25;35.90;86.00
14411;DHT22;7290;50.854;4.354;2023-09-07T09:26:51;36.30;85.40
14411;DHT22;7290;50.854;4.354;2023-09-07T09:29:22;36.30;84.10
14411;DHT22;7290;50.854;4.354;2023-09-07T09:31:48;36.50;84.20
14411;DHT22;7290;50.854;4.354;2023-09-07T09:34:15;36.80;83.00
14411;DHT22;7290;50.854;4.354;2023-09-07T09:36:42;36.90;82.50
14411;DHT22;7290;50.854;4.354;2023-09-07T09:39:09;37.40;81.10
14411;DHT22;7290;50.854;4.354;2023-09-07T09:41:35;36.50;82.50
14411;DHT22;7290;50.854;4.354;2023-09-07T09:44:03;36.10;83.60
14411;DHT22;7290;50.854;4.354;2023-09-07T09:46:31;36.70;82.80
14411;DHT22;7290;50.854;4.354;2023-09-07T09:48:58;36.80;82.00
14411;DHT22;7290;50.854;4.354;2023-09-07T09:51:24;36.30;82.30
14411;DHT22;7290;50.854;4.354;2023-09-07T09:53:51;35.30;85.10
14411;DHT22;7290;50.854;4.354;2023-09-07T09:56:20;35.90;84.20
14411;DHT22;7290;50.854;4.354;2023-09-07T09:58:47;36.30;82.70
14411;DHT22;7290;50.854;4.354;2023-09-07T10:01:15;37.00;82.60
14411;DHT22;7290;50.854;4.354;2023-09-07T10:03:44;37.40;81.30
14411;DHT22;7290;50.854;4.354;2023-09-07T10:06:25;37.20;81.20
14411;DHT22;7290;50.854;4.354;2023-09-07T10:08:59;37.30;80.90
14411;DHT22;7290;50.854;4.354;2023-09-07T10:11:31;37.40;80.50
14411;DHT22;7290;50.854;4.354;2023-09-07T10:13:58;37.40;80.90
14411;DHT22;7290;50.854;4.354;2023-09-07T10:16:25;37.60;80.40
14411;DHT22;7290;50.854;4.354;2023-09-07T10:18:53;37.50;81.10
14411;DHT22;7290;50.854;4.354;2023-09-07T10:21:23;37.60;80.10
14411;DHT22;7290;50.854;4.354;2023-09-07T10:23:51;37.40;81.00
14411;DHT22;7290;50.854;4.354;2023-09-07T10:26:19;37.80;79.90
14411;DHT22;7290;50.854;4.354;2023-09-07T10:28:48;37.70;80.20
14411;DHT22;7290;50.854;4.354;2023-09-07T10:31:25;37.60;80.50
14411;DHT22;7290;50.854;4.354;2023-09-07T10:33:51;37.70;79.90
14411;DHT22;7290;50.854;4.354;2023-09-07T10:36:21;37.30;80.80
14411;DHT22;7290;50.854;4.354;2023-09-07T10:38:48;37.10;81.20
14411;DHT22;7290;50.854;4.354;2023-09-07T10:41:15;38.10;80.20
14411;DHT22;7290;50.854;4.354;2023-09-07T10:43:48;38.20;79.50
14411;DHT22;7290;50.854;4.354;2023-09-07T10:46:15;37.50;80.30
14411;DHT22;7290;50.854;4.354;2023-09-07T10:48:44;37.10;81.30
14411;DHT22;7290;50.854;4.354;2023-09-07T10:51:10;37.40;81.00
14411;DHT22;7290;50.854;4.354;2023-09-07T10:53:36;37.60;80.40
14411;DHT22;7290;50.854;4.354;2023-09-07T10:56:04;36.90;81.50
14411;DHT22;7290;50.854;4.354;2023-09-07T10:58:31;37.20;82.00
14411;DHT22;7290;50.854;4.354;2023-09-07T11:00:59;37.10;82.20
14411;DHT22;7290;50.854;4.354;2023-09-07T11:03:27;36.40;82.40
14411;DHT22;7290;50.854;4.354;2023-09-07T11:05:55;36.00;82.90
14411;DHT22;7290;50.854;4.354;2023-09-07T11:08:23;36.70;82.40
14411;DHT22;7290;50.854;4.354;2023-09-07T11:10:50;37.80;80.90
14411;DHT22;7290;50.854;4.354;2023-09-07T11:13:17;38.00;79.50
14411;DHT22;7290;50.854;4.354;2023-09-07T11:15:44;38.50;79.40
14411;DHT22;7290;50.854;4.354;2023-09-07T11:18:11;38.90;78.30
14411;DHT22;7290;50.854;4.354;2023-09-07T11:20:37;38.60;78.30
14411;DHT22;7290;50.854;4.354;2023-09-07T11:23:05;38.20;78.40
14411;DHT22;7290;50.854;4.354;2023-09-07T11:25:36;37.60;78.70
14411;DHT22;7290;50.854;4.354;2023-09-07T11:28:03;37.30;79.20
14411;DHT22;7290;50.854;4.354;2023-09-07T11:30:30;37.70;79.20
14411;DHT22;7290;50.854;4.354;2023-09-07T11:33:01;38.00;78.90
14411;DHT22;7290;50.854;4.354;2023-09-07T11:35:30;37.60;79.00
14411;DHT22;7290;50.854;4.354;2023-09-07T11:37:56;37.70;79.40
14411;DHT22;7290;50.854;4.354;2023-09-07T11:40:22;38.00;78.10
14411;DHT22;7290;50.854;4.354;2023-09-07T11:42:48;37.60;78.40
14411;DHT22;7290;50.854;4.354;2023-09-07T11:45:14;37.00;78.60
14411;DHT22;7290;50.854;4.354;2023-09-07T11:47:41;36.30;78.60
14411;DHT22;7290;50.854;4.354;2023-09-07T11:50:07;36.60;79.30
14411;DHT22;7290;50.854;4.354;2023-09-07T11:52:34;37.60;78.00
14411;DHT22;7290;50.854;4.354;2023-09-07T11:55:01;37.60;78.30
14411;DHT22;7290;50.854;4.354;2023-09-07T11:57:28;38.20;77.20
14411;DHT22;7290;50.854;4.354;2023-09-07T11:59:55;38.30;75.50
14411;DHT22;7290;50.854;4.354;2023-09-07T12:02:21;38.40;76.00
14411;DHT22;7290;50.854;4.354;2023-09-07T12:04:47;38.10;76.30
14411;DHT22;7290;50.854;4.354;2023-09-07T12:07:14;38.20;76.40
14411;DHT22;7290;50.854;4.354;2023-09-07T12:09:41;38.40;75.30
14411;DHT22;7290;50.854;4.354;2023-09-07T12:12:07;38.70;75.70
14411;DHT22;7290;50.854;4.354;2023-09-07T12:14:33;38.10;75.00
14411;DHT22;7290;50.854;4.354;2023-09-07T12:16:59;37.70;75.80
14411;DHT22;7290;50.854;4.354;2023-09-07T12:19:25;36.60;76.50
14411;DHT22;7290;50.854;4.354;2023-09-07T12:21:52;35.80;78.40
14411;DHT22;7290;50.854;4.354;2023-09-07T12:24:18;35.70;78.90
14411;DHT22;7290;50.854;4.354;2023-09-07T12:26:44;36.60;78.30
14411;DHT22;7290;50.854;4.354;2023-09-07T12:29:11;35.90;78.30
14411;DHT22;7290;50.854;4.354;2023-09-07T12:31:37;35.10;80.80
14411;DHT22;7290;50.854;4.354;2023-09-07T12:34:03;34.30;82.10
14411;DHT22;7290;50.854;4.354;2023-09-07T12:36:31;33.60;83.30
14411;DHT22;7290;50.854;4.354;2023-09-07T12:38:57;33.10;83.50
14411;DHT22;7290;50.854;4.354;2023-09-07T12:41:26;32.10;86.60
14411;DHT22;7290;50.854;4.354;2023-09-07T12:43:53;32.20;86.80
14411;DHT22;7290;50.854;4.354;2023-09-07T12:46:19;32.20;87.10
14411;DHT22;7290;50.854;4.354;2023-09-07T12:48:46;32.00;86.90
14411;DHT22;7290;50.854;4.354;2023-09-07T12:51:12;31.80;87.70
14411;DHT22;7290;50.854;4.354;2023-09-07T12:53:38;31.90;87.90
14411;DHT22;7290;50.854;4.354;2023-09-07T12:56:05;31.90;87.30
14411;DHT22;7290;50.854;4.354;2023-09-07T12:58:31;31.60;87.70
14411;DHT22;7290;50.854;4.354;2023-09-07T13:01:00;31.40;88.10
14411;DHT22;7290;50.854;4.354;2023-09-07T13:03:28;31.50;88.90
14411;DHT22;7290;50.854;4.354;2023-09-07T13:05:54;31.60;88.90
14411;DHT22;7290;50.854;4.354;2023-09-07T13:08:20;31.50;89.10
14411;DHT22;7290;50.854;4.354;2023-09-07T13:10:46;31.30;89.50
14411;DHT22;7290;50.854;4.354;2023-09-07T13:13:12;31.20;90.00
14411;DHT22;7290;50.854;4.354;2023-09-07T13:15:39;31.40;90.20
14411;DHT22;7290;50.854;4.354;2023-09-07T13:18:06;31.40;90.00
14411;DHT22;7290;50.854;4.354;2023-09-07T13:20:32;31.60;90.00
14411;DHT22;7290;50.854;4.354;2023-09-07T13:22:58;31.90;88.80
14411;DHT22;7290;50.854;4.354;2023-09-07T13:25:25;31.60;89.20
14411;DHT22;7290;50.854;4.354;2023-09-07T13:27:51;31.30;90.00
14411;DHT22;7290;50.854;4.354;2023-09-07T13:30:17;31.00;90.60
14411;DHT22;7290;50.854;4.354;2023-09-07T13:32:44;31.30;90.40
14411;DHT22;7290;50.854;4.354;2023-09-07T13:35:14;31.70;90.20
14411;DHT22;7290;50.854;4.354;2023-09-07T13:37:40;31.50;90.00
14411;DHT22;7290;50.854;4.354;2023-09-07T13:40:07;31.30;90.30
14411;DHT22;7290;50.854;4.354;2023-09-07T13:42:34;31.40;90.50
14411;DHT22;7290;50.854;4.354;2023-09-07T13:45:00;31.60;90.50
14411;DHT22;7290;50.854;4.354;2023-09-07T13:47:26;31.90;90.30
14411;DHT22;7290;50.854;4.354;2023-09-07T13:49:52;32.10;90.30
14411;DHT22;7290;50.854;4.354;2023-09-07T13:52:19;32.00;90.40
14411;DHT22;7290;50.854;4.354;2023-09-07T13:54:45;31.80;90.60
14411;DHT22;7290;50.854;4.354;2023-09-07T13:57:11;31.90;90.60
14411;DHT22;7290;50.854;4.354;2023-09-07T13:59:37;31.80;90.80
14411;DHT22;7290;50.854;4.354;2023-09-07T14:02:03;31.70;90.70
14411;DHT22;7290;50.854;4.354;2023-09-07T14:04:29;31.80;90.80
14411;DHT22;7290;50.854;4.354;2023-09-07T14:06:56;31.80;91.00
14411;DHT22;7290;50.854;4.354;2023-09-07T14:09:23;32.00;90.90
14411;DHT22;7290;50.854;4.354;2023-09-07T14:11:49;32.10;90.80
14411;DHT22;7290;50.854;4.354;2023-09-07T14:14:16;32.10;90.70
14411;DHT22;7290;50.854;4.354;2023-09-07T14:16:43;32.10;90.90
14411;DHT22;7290;50.854;4.354;2023-09-07T14:19:09;32.10;90.90
14411;DHT22;7290;50.854;4.354;2023-09-07T14:21:35;32.30;90.70
14411;DHT22;7290;50.854;4.354;2023-09-07T14:24:01;32.30;90.50
14411;DHT22;7290;50.854;4.354;2023-09-07T14:26:30;32.40;90.30
14411;DHT22;7290;50.854;4.354;2023-09-07T14:28:56;32.00;90.50
14411;DHT22;7290;50.854;4.354;2023-09-07T14:31:22;31.80;90.90
14411;DHT22;7290;50.854;4.354;2023-09-07T14:33:48;32.00;90.80
14411;DHT22;7290;50.854;4.354;2023-09-07T14:36:15;32.10;90.60
14411;DHT22;7290;50.854;4.354;2023-09-07T14:38:42;31.70;90.90
14411;DHT22;7290;50.854;4.354;2023-09-07T14:41:10;31.60;91.00
14411;DHT22;7290;50.854;4.354;2023-09-07T14:43:44;31.60;91.50
14411;DHT22;7290;50.854;4.354;2023-09-07T14:46:12;31.90;91.00
14411;DHT22;7290;50.854;4.354;2023-09-07T14:48:38;31.80;91.00
14411;DHT22;7290;50.854;4.354;2023-09-07T14:51:05;32.00;91.00
14411;DHT22;7290;50.854;4.354;2023-09-07T14:53:31;32.20;90.80
14411;DHT22;7290;50.854;4.354;2023-09-07T14:55:57;32.20;90.50
14411;DHT22;7290;50.854;4.354;2023-09-07T14:58:23;32.30;90.60
14411;DHT22;7290;50.854;4.354;2023-09-07T15:00:50;32.30;90.40
14411;DHT22;7290;50.854;4.354;2023-09-07T15:03:16;32.30;90.40
14411;DHT22;7290;50.854;4.354;2023-09-07T15:05:42;32.60;90.70
14411;DHT22;7290;50.854;4.354;2023-09-07T15:08:09;32.80;91.20
14411;DHT22;7290;50.854;4.354;2023-09-07T15:10:35;33.00;91.00
14411;DHT22;7290;50.854;4.354;2023-09-07T15:13:01;33.00;91.00
14411;DHT22;7290;50.854;4.354;2023-09-07T15:15:28;33.10;91.20
14411;DHT22;7290;50.854;4.354;2023-09-07T15:17:55;32.90;91.20
14411;DHT22;7290;50.854;4.354;2023-09-07T15:20:21;32.70;91.70
14411;DHT22;7290;50.854;4.354;2023-09-07T15:22:47;32.80;91.70
14411;DHT22;7290;50.854;4.354;2023-09-07T15:25:13;32.80;91.70
14411;DHT22;7290;50.854;4.354;2023-09-07T15:27:39;32.80;91.70
14411;DHT22;7290;50.854;4.354;2023-09-07T15:30:09;32.80;92.10
14411;DHT22;7290;50.854;4.354;2023-09-07T15:32:35;32.30;92.60
14411;DHT22;7290;50.854;4.354;2023-09-07T15:35:03;32.20;92.70
14411;DHT22;7290;50.854;4.354;2023-09-07T15:37:29;32.10;93.10
14411;DHT22;7290;50.854;4.354;2023-09-07T15:39:55;32.20;93.20
14411;DHT22;7290;50.854;4.354;2023-09-07T15:42:21;32.30;92.90